sensor_id;sensor_type;location;lat;lon;timestamp;P1;durP1;ratioP1;P2;durP2;ratioP2
42616;SDS011;28250;52.320;0.360;2023-07-16T00:00:51;7.70;;;1.30;;
42616;SDS011;28250;52.320;0.360;2023-07-16T00:03:17;6.72;;;3.08;;
42616;SDS011;28250;52.320;0.360;2023-07-16T00:05:44;2.33;;;0.93;;
42616;SDS011;28250;52.320;0.360;2023-07-16T00:08:10;2.65;;;0.93;;
42616;SDS011;28250;52.320;0.360;2023-07-16T00:10:36;4.18;;;1.08;;
42616;SDS011;28250;52.320;0.360;2023-07-16T00:13:03;3.58;;;0.80;;
42616;SDS011;28250;52.320;0.360;2023-07-16T00:15:30;4.25;;;0.90;;
42616;SDS011;28250;52.320;0.360;2023-07-16T00:17:56;7.10;;;1.60;;
42616;SDS011;28250;52.320;0.360;2023-07-16T00:20:23;5.63;;;1.08;;
42616;SDS011;28250;52.320;0.360;2023-07-16T00:22:49;6.97;;;1.13;;
42616;SDS011;28250;52.320;0.360;2023-07-16T00:25:16;3.65;;;0.98;;
42616;SDS011;28250;52.320;0.360;2023-07-16T00:27:43;4.47;;;0.88;;
42616;SDS011;28250;52.320;0.360;2023-07-16T00:30:09;6.95;;;1.17;;
42616;SDS011;28250;52.320;0.360;2023-07-16T00:32:35;4.65;;;0.98;;
42616;SDS011;28250;52.320;0.360;2023-07-16T00:35:02;4.47;;;1.13;;
42616;SDS011;28250;52.320;0.360;2023-07-16T00:37:28;4.13;;;1.17;;
42616;SDS011;28250;52.320;0.360;2023-07-16T00:39:55;5.00;;;1.13;;
42616;SDS011;28250;52.320;0.360;2023-07-16T00:42:22;4.95;;;1.08;;
42616;SDS011;28250;52.320;0.360;2023-07-16T00:44:48;3.77;;;0.90;;
42616;SDS011;28250;52.320;0.360;2023-07-16T00:47:14;4.25;;;1.20;;
42616;SDS011;28250;52.320;0.360;2023-07-16T00:49:41;5.32;;;1.17;;
42616;SDS011;28250;52.320;0.360;2023-07-16T00:52:11;1.83;;;0.90;;
42616;SDS011;28250;52.320;0.360;2023-07-16T00:54:40;6.53;;;1.45;;
42616;SDS011;28250;52.320;0.360;2023-07-16T00:57:07;6.93;;;0.90;;
42616;SDS011;28250;52.320;0.360;2023-07-16T00:59:33;3.23;;;1.50;;
42616;SDS011;28250;52.320;0.360;2023-07-16T01:02:00;3.95;;;0.95;;
42616;SDS011;28250;52.320;0.360;2023-07-16T01:04:26;2.22;;;1.00;;
42616;SDS011;28250;52.320;0.360;2023-07-16T01:06:53;6.50;;;1.80;;
42616;SDS011;28250;52.320;0.360;2023-07-16T01:09:22;7.78;;;1.40;;
42616;SDS011;28250;52.320;0.360;2023-07-16T01:11:49;5.05;;;1.52;;
42616;SDS011;28250;52.320;0.360;2023-07-16T01:14:17;9.10;;;1.65;;
42616;SDS011;28250;52.320;0.360;2023-07-16T01:16:43;3.08;;;0.90;;
42616;SDS011;28250;52.320;0.360;2023-07-16T01:19:10;4.97;;;1.27;;
42616;SDS011;28250;52.320;0.360;2023-07-16T01:22:03;4.93;;;1.65;;
42616;SDS011;28250;52.320;0.360;2023-07-16T01:30:15;7.10;;;1.40;;
42616;SDS011;28250;52.320;0.360;2023-07-16T01:32:41;5.95;;;1.55;;
42616;SDS011;28250;52.320;0.360;2023-07-16T01:35:08;7.13;;;1.38;;
42616;SDS011;28250;52.320;0.360;2023-07-16T01:37:35;6.78;;;1.52;;
42616;SDS011;28250;52.320;0.360;2023-07-16T01:40:02;3.22;;;1.35;;
42616;SDS011;28250;52.320;0.360;2023-07-16T01:42:28;7.22;;;1.67;;
42616;SDS011;28250;52.320;0.360;2023-07-16T01:44:55;6.40;;;1.20;;
42616;SDS011;28250;52.320;0.360;2023-07-16T01:47:45;10.35;;;2.03;;
42616;SDS011;28250;52.320;0.360;2023-07-16T01:50:38;9.60;;;1.42;;
42616;SDS011;28250;52.320;0.360;2023-07-16T01:53:04;4.47;;;1.05;;
42616;SDS011;28250;52.320;0.360;2023-07-16T01:55:31;6.83;;;1.33;;
42616;SDS011;28250;52.320;0.360;2023-07-16T01:57:57;5.35;;;1.40;;
42616;SDS011;28250;52.320;0.360;2023-07-16T02:00:24;8.68;;;1.67;;
42616;SDS011;28250;52.320;0.360;2023-07-16T02:02:50;6.72;;;1.70;;
42616;SDS011;28250;52.320;0.360;2023-07-16T02:05:17;5.28;;;1.48;;
42616;SDS011;28250;52.320;0.360;2023-07-16T02:07:43;6.07;;;1.70;;
42616;SDS011;28250;52.320;0.360;2023-07-16T02:10:10;7.18;;;1.75;;
42616;SDS011;28250;52.320;0.360;2023-07-16T02:12:36;5.45;;;1.50;;
42616;SDS011;28250;52.320;0.360;2023-07-16T02:15:03;6.78;;;1.40;;
42616;SDS011;28250;52.320;0.360;2023-07-16T02:17:34;7.00;;;2.25;;
42616;SDS011;28250;52.320;0.360;2023-07-16T02:20:01;7.70;;;1.70;;
42616;SDS011;28250;52.320;0.360;2023-07-16T02:22:30;8.25;;;2.17;;
42616;SDS011;28250;52.320;0.360;2023-07-16T02:24:58;6.85;;;1.73;;
42616;SDS011;28250;52.320;0.360;2023-07-16T02:27:25;6.43;;;2.10;;
42616;SDS011;28250;52.320;0.360;2023-07-16T02:29:51;6.90;;;1.60;;
42616;SDS011;28250;52.320;0.360;2023-07-16T02:32:17;5.45;;;1.70;;
42616;SDS011;28250;52.320;0.360;2023-07-16T02:34:44;8.38;;;2.38;;
42616;SDS011;28250;52.320;0.360;2023-07-16T02:37:10;7.07;;;1.77;;
42616;SDS011;28250;52.320;0.360;2023-07-16T02:39:38;5.20;;;1.65;;
42616;SDS011;28250;52.320;0.360;2023-07-16T02:42:04;10.23;;;2.15;;
42616;SDS011;28250;52.320;0.360;2023-07-16T02:44:31;9.75;;;1.77;;
42616;SDS011;28250;52.320;0.360;2023-07-16T02:46:57;5.70;;;1.60;;
42616;SDS011;28250;52.320;0.360;2023-07-16T02:49:24;7.72;;;1.65;;
42616;SDS011;28250;52.320;0.360;2023-07-16T02:51:50;7.03;;;1.90;;
42616;SDS011;28250;52.320;0.360;2023-07-16T02:54:16;7.65;;;1.67;;
42616;SDS011;28250;52.320;0.360;2023-07-16T02:56:43;10.65;;;1.60;;
42616;SDS011;28250;52.320;0.360;2023-07-16T02:59:09;7.57;;;2.22;;
42616;SDS011;28250;52.320;0.360;2023-07-16T03:01:35;13.00;;;2.85;;
42616;SDS011;28250;52.320;0.360;2023-07-16T03:04:02;9.32;;;2.13;;
42616;SDS011;28250;52.320;0.360;2023-07-16T03:06:29;5.20;;;1.33;;
42616;SDS011;28250;52.320;0.360;2023-07-16T03:08:56;7.47;;;1.67;;
42616;SDS011;28250;52.320;0.360;2023-07-16T03:11:22;6.80;;;1.60;;
42616;SDS011;28250;52.320;0.360;2023-07-16T03:13:48;7.68;;;1.67;;
42616;SDS011;28250;52.320;0.360;2023-07-16T03:16:15;9.88;;;1.80;;
42616;SDS011;28250;52.320;0.360;2023-07-16T03:18:42;9.65;;;1.95;;
42616;SDS011;28250;52.320;0.360;2023-07-16T03:21:09;9.55;;;1.70;;
42616;SDS011;28250;52.320;0.360;2023-07-16T03:23:35;9.27;;;2.20;;
42616;SDS011;28250;52.320;0.360;2023-07-16T03:26:02;5.07;;;1.70;;
42616;SDS011;28250;52.320;0.360;2023-07-16T03:28:29;6.15;;;1.73;;
42616;SDS011;28250;52.320;0.360;2023-07-16T03:30:56;6.35;;;1.85;;
42616;SDS011;28250;52.320;0.360;2023-07-16T03:33:22;6.83;;;1.90;;
42616;SDS011;28250;52.320;0.360;2023-07-16T03:35:49;8.77;;;2.42;;
42616;SDS011;28250;52.320;0.360;2023-07-16T03:38:17;5.68;;;1.77;;
42616;SDS011;28250;52.320;0.360;2023-07-16T03:40:46;6.60;;;1.55;;
42616;SDS011;28250;52.320;0.360;2023-07-16T03:43:13;11.93;;;2.28;;
42616;SDS011;28250;52.320;0.360;2023-07-16T03:45:40;8.18;;;2.22;;
42616;SDS011;28250;52.320;0.360;2023-07-16T03:48:07;8.73;;;2.58;;
42616;SDS011;28250;52.320;0.360;2023-07-16T03:50:34;5.47;;;1.52;;
42616;SDS011;28250;52.320;0.360;2023-07-16T03:53:01;6.38;;;1.67;;
42616;SDS011;28250;52.320;0.360;2023-07-16T03:55:28;9.25;;;2.63;;
42616;SDS011;28250;52.320;0.360;2023-07-16T03:57:55;10.07;;;2.72;;
42616;SDS011;28250;52.320;0.360;2023-07-16T04:00:21;8.82;;;2.40;;
42616;SDS011;28250;52.320;0.360;2023-07-16T04:02:50;8.77;;;2.38;;
42616;SDS011;28250;52.320;0.360;2023-07-16T04:05:17;10.40;;;2.33;;
42616;SDS011;28250;52.320;0.360;2023-07-16T04:07:44;10.63;;;2.33;;
42616;SDS011;28250;52.320;0.360;2023-07-16T04:10:10;7.18;;;2.30;;
42616;SDS011;28250;52.320;0.360;2023-07-16T04:12:36;9.63;;;2.85;;
42616;SDS011;28250;52.320;0.360;2023-07-16T04:15:06;10.85;;;2.03;;
42616;SDS011;28250;52.320;0.360;2023-07-16T04:17:34;12.85;;;2.80;;
42616;SDS011;28250;52.320;0.360;2023-07-16T04:20:00;13.38;;;2.38;;
42616;SDS011;28250;52.320;0.360;2023-07-16T04:22:28;13.45;;;2.50;;
42616;SDS011;28250;52.320;0.360;2023-07-16T04:24:54;8.30;;;2.85;;
42616;SDS011;28250;52.320;0.360;2023-07-16T04:27:20;15.00;;;3.38;;
42616;SDS011;28250;52.320;0.360;2023-07-16T04:29:47;10.75;;;2.20;;
42616;SDS011;28250;52.320;0.360;2023-07-16T04:32:13;9.60;;;2.47;;
42616;SDS011;28250;52.320;0.360;2023-07-16T04:34:39;12.45;;;2.35;;
42616;SDS011;28250;52.320;0.360;2023-07-16T04:37:06;12.18;;;2.58;;
42616;SDS011;28250;52.320;0.360;2023-07-16T04:39:32;10.55;;;2.00;;
42616;SDS011;28250;52.320;0.360;2023-07-16T04:41:59;9.10;;;2.53;;
42616;SDS011;28250;52.320;0.360;2023-07-16T04:44:25;12.23;;;2.53;;
42616;SDS011;28250;52.320;0.360;2023-07-16T04:46:51;15.07;;;2.90;;
42616;SDS011;28250;52.320;0.360;2023-07-16T04:49:17;13.30;;;2.28;;
42616;SDS011;28250;52.320;0.360;2023-07-16T04:51:44;10.80;;;2.50;;
42616;SDS011;28250;52.320;0.360;2023-07-16T04:54:10;10.30;;;2.28;;
42616;SDS011;28250;52.320;0.360;2023-07-16T04:56:37;10.75;;;2.42;;
42616;SDS011;28250;52.320;0.360;2023-07-16T04:59:03;11.13;;;2.50;;
42616;SDS011;28250;52.320;0.360;2023-07-16T05:01:29;10.65;;;2.30;;
42616;SDS011;28250;52.320;0.360;2023-07-16T05:03:56;10.45;;;2.42;;
42616;SDS011;28250;52.320;0.360;2023-07-16T05:06:22;11.70;;;2.50;;
42616;SDS011;28250;52.320;0.360;2023-07-16T05:08:49;13.93;;;2.45;;
42616;SDS011;28250;52.320;0.360;2023-07-16T05:11:15;12.45;;;2.38;;
42616;SDS011;28250;52.320;0.360;2023-07-16T05:13:41;11.40;;;2.60;;
42616;SDS011;28250;52.320;0.360;2023-07-16T05:16:08;11.77;;;2.63;;
42616;SDS011;28250;52.320;0.360;2023-07-16T05:18:35;9.02;;;2.10;;
42616;SDS011;28250;52.320;0.360;2023-07-16T05:21:01;11.68;;;2.85;;
42616;SDS011;28250;52.320;0.360;2023-07-16T05:23:27;13.40;;;2.75;;
42616;SDS011;28250;52.320;0.360;2023-07-16T05:25:54;15.45;;;2.58;;
42616;SDS011;28250;52.320;0.360;2023-07-16T05:28:20;12.13;;;2.33;;
42616;SDS011;28250;52.320;0.360;2023-07-16T05:30:47;16.70;;;3.00;;
42616;SDS011;28250;52.320;0.360;2023-07-16T05:33:13;11.13;;;2.28;;
42616;SDS011;28250;52.320;0.360;2023-07-16T05:35:39;11.13;;;1.85;;
42616;SDS011;28250;52.320;0.360;2023-07-16T05:38:06;7.53;;;2.17;;
42616;SDS011;28250;52.320;0.360;2023-07-16T05:40:32;7.68;;;2.05;;
42616;SDS011;28250;52.320;0.360;2023-07-16T05:42:59;11.80;;;2.47;;
42616;SDS011;28250;52.320;0.360;2023-07-16T05:45:25;12.23;;;2.20;;
42616;SDS011;28250;52.320;0.360;2023-07-16T05:47:51;11.35;;;2.28;;
42616;SDS011;28250;52.320;0.360;2023-07-16T05:50:18;10.90;;;2.42;;
42616;SDS011;28250;52.320;0.360;2023-07-16T05:52:44;8.13;;;2.55;;
42616;SDS011;28250;52.320;0.360;2023-07-16T05:55:13;10.27;;;2.30;;
42616;SDS011;28250;52.320;0.360;2023-07-16T05:57:40;10.07;;;2.65;;
42616;SDS011;28250;52.320;0.360;2023-07-16T06:00:06;9.15;;;2.00;;
42616;SDS011;28250;52.320;0.360;2023-07-16T06:02:37;9.85;;;2.65;;
42616;SDS011;28250;52.320;0.360;2023-07-16T06:05:03;9.10;;;1.77;;
42616;SDS011;28250;52.320;0.360;2023-07-16T06:07:30;10.27;;;2.30;;
42616;SDS011;28250;52.320;0.360;2023-07-16T06:09:57;9.93;;;2.13;;
42616;SDS011;28250;52.320;0.360;2023-07-16T06:12:24;10.02;;;2.20;;
42616;SDS011;28250;52.320;0.360;2023-07-16T06:14:51;13.45;;;2.38;;
42616;SDS011;28250;52.320;0.360;2023-07-16T06:17:17;5.88;;;1.88;;
42616;SDS011;28250;52.320;0.360;2023-07-16T06:19:43;9.30;;;1.83;;
42616;SDS011;28250;52.320;0.360;2023-07-16T06:22:10;13.25;;;2.45;;
42616;SDS011;28250;52.320;0.360;2023-07-16T06:24:36;12.07;;;2.25;;
42616;SDS011;28250;52.320;0.360;2023-07-16T06:27:02;13.80;;;2.78;;
42616;SDS011;28250;52.320;0.360;2023-07-16T06:29:29;9.15;;;2.00;;
42616;SDS011;28250;52.320;0.360;2023-07-16T06:31:56;10.98;;;2.10;;
42616;SDS011;28250;52.320;0.360;2023-07-16T06:34:23;9.35;;;1.90;;
42616;SDS011;28250;52.320;0.360;2023-07-16T06:36:50;13.65;;;2.25;;
42616;SDS011;28250;52.320;0.360;2023-07-16T06:39:16;8.65;;;1.83;;
42616;SDS011;28250;52.320;0.360;2023-07-16T06:41:43;9.53;;;2.43;;
42616;SDS011;28250;52.320;0.360;2023-07-16T06:44:09;10.00;;;2.67;;
42616;SDS011;28250;52.320;0.360;2023-07-16T06:46:36;8.77;;;2.20;;
42616;SDS011;28250;52.320;0.360;2023-07-16T06:49:02;7.63;;;1.92;;
42616;SDS011;28250;52.320;0.360;2023-07-16T06:51:30;9.63;;;1.98;;
42616;SDS011;28250;52.320;0.360;2023-07-16T06:53:57;8.57;;;2.08;;
42616;SDS011;28250;52.320;0.360;2023-07-16T06:56:24;8.80;;;2.55;;
42616;SDS011;28250;52.320;0.360;2023-07-16T06:58:50;8.35;;;1.80;;
42616;SDS011;28250;52.320;0.360;2023-07-16T07:01:16;9.73;;;1.88;;
42616;SDS011;28250;52.320;0.360;2023-07-16T07:03:43;7.28;;;1.83;;
42616;SDS011;28250;52.320;0.360;2023-07-16T07:06:09;8.40;;;1.70;;
42616;SDS011;28250;52.320;0.360;2023-07-16T07:08:36;9.40;;;2.17;;
42616;SDS011;28250;52.320;0.360;2023-07-16T07:11:03;11.60;;;2.35;;
42616;SDS011;28250;52.320;0.360;2023-07-16T07:13:30;9.63;;;1.70;;
42616;SDS011;28250;52.320;0.360;2023-07-16T07:15:56;12.80;;;2.10;;
42616;SDS011;28250;52.320;0.360;2023-07-16T07:18:23;8.07;;;1.63;;
42616;SDS011;28250;52.320;0.360;2023-07-16T07:20:49;16.55;;;2.00;;
42616;SDS011;28250;52.320;0.360;2023-07-16T07:23:16;10.73;;;2.40;;
42616;SDS011;28250;52.320;0.360;2023-07-16T07:25:42;6.10;;;1.55;;
42616;SDS011;28250;52.320;0.360;2023-07-16T07:28:13;14.77;;;2.15;;
42616;SDS011;28250;52.320;0.360;2023-07-16T07:30:39;10.27;;;1.48;;
42616;SDS011;28250;52.320;0.360;2023-07-16T07:33:06;10.43;;;1.77;;
42616;SDS011;28250;52.320;0.360;2023-07-16T07:35:32;10.90;;;1.52;;
42616;SDS011;28250;52.320;0.360;2023-07-16T07:37:58;6.60;;;1.85;;
42616;SDS011;28250;52.320;0.360;2023-07-16T07:40:25;8.68;;;1.92;;
42616;SDS011;28250;52.320;0.360;2023-07-16T07:42:52;8.98;;;2.03;;
42616;SDS011;28250;52.320;0.360;2023-07-16T07:45:18;7.53;;;2.35;;
42616;SDS011;28250;52.320;0.360;2023-07-16T07:47:44;8.50;;;2.10;;
42616;SDS011;28250;52.320;0.360;2023-07-16T07:50:11;9.18;;;1.48;;
42616;SDS011;28250;52.320;0.360;2023-07-16T07:52:37;13.77;;;2.57;;
42616;SDS011;28250;52.320;0.360;2023-07-16T07:55:04;9.05;;;1.85;;
42616;SDS011;28250;52.320;0.360;2023-07-16T07:57:30;10.98;;;1.50;;
42616;SDS011;28250;52.320;0.360;2023-07-16T07:59:57;8.50;;;2.50;;
42616;SDS011;28250;52.320;0.360;2023-07-16T08:02:23;6.67;;;2.00;;
42616;SDS011;28250;52.320;0.360;2023-07-16T08:04:53;9.02;;;2.08;;
42616;SDS011;28250;52.320;0.360;2023-07-16T08:07:20;10.20;;;1.45;;
42616;SDS011;28250;52.320;0.360;2023-07-16T08:12:14;4.15;;;1.35;;
42616;SDS011;28250;52.320;0.360;2023-07-16T08:14:41;3.22;;;1.10;;
42616;SDS011;28250;52.320;0.360;2023-07-16T08:17:07;8.35;;;1.48;;
42616;SDS011;28250;52.320;0.360;2023-07-16T08:19:33;7.30;;;1.93;;
42616;SDS011;28250;52.320;0.360;2023-07-16T08:22:00;10.80;;;1.80;;
42616;SDS011;28250;52.320;0.360;2023-07-16T08:24:26;4.67;;;1.13;;
42616;SDS011;28250;52.320;0.360;2023-07-16T08:26:53;7.00;;;1.60;;
42616;SDS011;28250;52.320;0.360;2023-07-16T08:29:19;7.57;;;1.63;;
42616;SDS011;28250;52.320;0.360;2023-07-16T08:31:45;7.32;;;1.27;;
42616;SDS011;28250;52.320;0.360;2023-07-16T08:34:12;4.57;;;1.27;;
42616;SDS011;28250;52.320;0.360;2023-07-16T08:36:38;4.80;;;1.20;;
42616;SDS011;28250;52.320;0.360;2023-07-16T08:39:05;6.72;;;1.25;;
42616;SDS011;28250;52.320;0.360;2023-07-16T08:41:32;9.40;;;1.90;;
42616;SDS011;28250;52.320;0.360;2023-07-16T08:43:59;11.68;;;1.10;;
42616;SDS011;28250;52.320;0.360;2023-07-16T08:46:25;5.97;;;1.23;;
42616;SDS011;28250;52.320;0.360;2023-07-16T08:48:52;9.70;;;2.05;;
42616;SDS011;28250;52.320;0.360;2023-07-16T08:51:19;3.88;;;1.00;;
42616;SDS011;28250;52.320;0.360;2023-07-16T08:53:47;3.45;;;0.95;;
42616;SDS011;28250;52.320;0.360;2023-07-16T08:56:13;5.65;;;1.40;;
42616;SDS011;28250;52.320;0.360;2023-07-16T08:58:40;6.60;;;1.50;;
42616;SDS011;28250;52.320;0.360;2023-07-16T09:01:10;8.07;;;1.50;;
42616;SDS011;28250;52.320;0.360;2023-07-16T09:03:37;6.22;;;1.08;;
42616;SDS011;28250;52.320;0.360;2023-07-16T09:06:04;3.20;;;1.13;;
42616;SDS011;28250;52.320;0.360;2023-07-16T09:08:30;6.23;;;1.40;;
42616;SDS011;28250;52.320;0.360;2023-07-16T09:10:58;5.93;;;1.30;;
42616;SDS011;28250;52.320;0.360;2023-07-16T09:13:24;3.45;;;1.30;;
42616;SDS011;28250;52.320;0.360;2023-07-16T09:15:53;4.63;;;1.30;;
42616;SDS011;28250;52.320;0.360;2023-07-16T09:18:20;6.90;;;1.15;;
42616;SDS011;28250;52.320;0.360;2023-07-16T09:20:47;6.53;;;1.35;;
42616;SDS011;28250;52.320;0.360;2023-07-16T09:23:19;6.70;;;1.33;;
42616;SDS011;28250;52.320;0.360;2023-07-16T09:25:45;5.68;;;1.73;;
42616;SDS011;28250;52.320;0.360;2023-07-16T09:28:11;5.75;;;1.17;;
42616;SDS011;28250;52.320;0.360;2023-07-16T09:30:38;9.25;;;1.42;;
42616;SDS011;28250;52.320;0.360;2023-07-16T09:33:13;8.43;;;2.10;;
42616;SDS011;28250;52.320;0.360;2023-07-16T09:35:40;4.00;;;1.05;;
42616;SDS011;28250;52.320;0.360;2023-07-16T09:38:07;9.52;;;1.42;;
42616;SDS011;28250;52.320;0.360;2023-07-16T09:40:38;4.53;;;1.30;;
42616;SDS011;28250;52.320;0.360;2023-07-16T09:43:08;4.47;;;1.30;;
42616;SDS011;28250;52.320;0.360;2023-07-16T09:45:35;5.40;;;1.30;;
42616;SDS011;28250;52.320;0.360;2023-07-16T09:48:04;10.68;;;1.50;;
42616;SDS011;28250;52.320;0.360;2023-07-16T09:50:34;5.95;;;1.10;;
42616;SDS011;28250;52.320;0.360;2023-07-16T09:53:03;4.95;;;1.27;;
42616;SDS011;28250;52.320;0.360;2023-07-16T09:55:33;7.93;;;1.77;;
42616;SDS011;28250;52.320;0.360;2023-07-16T09:58:01;6.63;;;1.00;;
42616;SDS011;28250;52.320;0.360;2023-07-16T10:00:31;4.85;;;1.13;;
42616;SDS011;28250;52.320;0.360;2023-07-16T10:02:58;5.40;;;1.30;;
42616;SDS011;28250;52.320;0.360;2023-07-16T10:05:26;8.60;;;1.98;;
42616;SDS011;28250;52.320;0.360;2023-07-16T10:10:25;4.60;;;1.17;;
42616;SDS011;28250;52.320;0.360;2023-07-16T10:13:03;4.45;;;1.13;;
42616;SDS011;28250;52.320;0.360;2023-07-16T10:15:29;6.38;;;0.95;;
42616;SDS011;28250;52.320;0.360;2023-07-16T10:17:56;3.92;;;0.98;;
42616;SDS011;28250;52.320;0.360;2023-07-16T10:20:29;4.83;;;0.80;;
42616;SDS011;28250;52.320;0.360;2023-07-16T10:22:57;5.72;;;1.20;;
42616;SDS011;28250;52.320;0.360;2023-07-16T10:25:27;4.37;;;1.20;;
42616;SDS011;28250;52.320;0.360;2023-07-16T10:27:55;5.72;;;1.00;;
42616;SDS011;28250;52.320;0.360;2023-07-16T10:30:21;5.75;;;1.20;;
42616;SDS011;28250;52.320;0.360;2023-07-16T10:32:50;5.80;;;1.00;;
42616;SDS011;28250;52.320;0.360;2023-07-16T10:35:17;4.75;;;1.27;;
42616;SDS011;28250;52.320;0.360;2023-07-16T10:37:43;7.60;;;1.52;;
42616;SDS011;28250;52.320;0.360;2023-07-16T10:40:13;4.97;;;1.23;;
42616;SDS011;28250;52.320;0.360;2023-07-16T10:42:40;7.40;;;1.90;;
42616;SDS011;28250;52.320;0.360;2023-07-16T10:45:08;4.20;;;2.05;;
42616;SDS011;28250;52.320;0.360;2023-07-16T10:47:40;4.28;;;1.35;;
42616;SDS011;28250;52.320;0.360;2023-07-16T10:50:16;7.93;;;1.42;;
42616;SDS011;28250;52.320;0.360;2023-07-16T10:52:43;5.28;;;1.30;;
42616;SDS011;28250;52.320;0.360;2023-07-16T10:55:10;4.60;;;1.53;;
42616;SDS011;28250;52.320;0.360;2023-07-16T10:57:36;3.90;;;1.90;;
42616;SDS011;28250;52.320;0.360;2023-07-16T11:00:03;4.23;;;1.10;;
42616;SDS011;28250;52.320;0.360;2023-07-16T11:02:30;5.70;;;1.42;;
42616;SDS011;28250;52.320;0.360;2023-07-16T11:04:57;4.97;;;1.10;;
42616;SDS011;28250;52.320;0.360;2023-07-16T11:07:26;3.70;;;1.00;;
42616;SDS011;28250;52.320;0.360;2023-07-16T11:09:53;4.32;;;0.68;;
42616;SDS011;28250;52.320;0.360;2023-07-16T11:12:23;5.10;;;0.70;;
42616;SDS011;28250;52.320;0.360;2023-07-16T11:14:50;3.78;;;0.85;;
42616;SDS011;28250;52.320;0.360;2023-07-16T11:17:19;2.33;;;0.65;;
42616;SDS011;28250;52.320;0.360;2023-07-16T11:19:47;4.72;;;1.17;;
42616;SDS011;28250;52.320;0.360;2023-07-16T11:24:41;2.38;;;1.10;;
42616;SDS011;28250;52.320;0.360;2023-07-16T11:27:21;3.67;;;0.82;;
42616;SDS011;28250;52.320;0.360;2023-07-16T11:29:51;2.83;;;0.77;;
42616;SDS011;28250;52.320;0.360;2023-07-16T11:34:57;3.55;;;0.70;;
42616;SDS011;28250;52.320;0.360;2023-07-16T11:37:25;3.45;;;0.70;;
42616;SDS011;28250;52.320;0.360;2023-07-16T11:42:23;2.92;;;0.80;;
42616;SDS011;28250;52.320;0.360;2023-07-16T11:44:53;2.63;;;0.52;;
42616;SDS011;28250;52.320;0.360;2023-07-16T11:49:47;3.90;;;0.50;;
42616;SDS011;28250;52.320;0.360;2023-07-16T11:52:14;2.95;;;0.68;;
42616;SDS011;28250;52.320;0.360;2023-07-16T11:54:52;4.90;;;1.08;;
42616;SDS011;28250;52.320;0.360;2023-07-16T11:57:19;3.70;;;0.77;;
42616;SDS011;28250;52.320;0.360;2023-07-16T11:59:45;2.33;;;0.90;;
42616;SDS011;28250;52.320;0.360;2023-07-16T12:02:12;2.65;;;0.52;;
42616;SDS011;28250;52.320;0.360;2023-07-16T12:04:38;4.57;;;0.90;;
42616;SDS011;28250;52.320;0.360;2023-07-16T12:07:05;2.35;;;0.82;;
42616;SDS011;28250;52.320;0.360;2023-07-16T12:09:32;3.33;;;0.80;;
42616;SDS011;28250;52.320;0.360;2023-07-16T12:11:59;2.88;;;1.00;;
42616;SDS011;28250;52.320;0.360;2023-07-16T12:14:26;3.15;;;0.93;;
42616;SDS011;28250;52.320;0.360;2023-07-16T12:16:52;2.47;;;0.90;;
42616;SDS011;28250;52.320;0.360;2023-07-16T12:19:19;6.03;;;0.77;;
42616;SDS011;28250;52.320;0.360;2023-07-16T12:21:45;7.72;;;1.00;;
42616;SDS011;28250;52.320;0.360;2023-07-16T12:24:12;5.65;;;1.33;;
42616;SDS011;28250;52.320;0.360;2023-07-16T12:26:38;3.03;;;0.80;;
42616;SDS011;28250;52.320;0.360;2023-07-16T12:29:05;3.53;;;0.90;;
42616;SDS011;28250;52.320;0.360;2023-07-16T12:31:31;4.07;;;0.85;;
42616;SDS011;28250;52.320;0.360;2023-07-16T12:33:59;8.65;;;1.48;;
42616;SDS011;28250;52.320;0.360;2023-07-16T12:36:27;3.88;;;1.00;;
42616;SDS011;28250;52.320;0.360;2023-07-16T12:38:53;4.43;;;0.90;;
42616;SDS011;28250;52.320;0.360;2023-07-16T12:41:20;3.90;;;1.08;;
42616;SDS011;28250;52.320;0.360;2023-07-16T12:43:46;4.47;;;1.00;;
42616;SDS011;28250;52.320;0.360;2023-07-16T12:46:13;3.10;;;0.95;;
42616;SDS011;28250;52.320;0.360;2023-07-16T12:48:39;4.53;;;0.57;;
42616;SDS011;28250;52.320;0.360;2023-07-16T12:51:06;2.60;;;0.70;;
42616;SDS011;28250;52.320;0.360;2023-07-16T12:53:32;1.95;;;0.70;;
42616;SDS011;28250;52.320;0.360;2023-07-16T12:55:59;5.28;;;0.90;;
42616;SDS011;28250;52.320;0.360;2023-07-16T12:58:25;2.23;;;0.90;;
42616;SDS011;28250;52.320;0.360;2023-07-16T13:00:51;3.13;;;0.80;;
42616;SDS011;28250;52.320;0.360;2023-07-16T13:03:18;3.17;;;1.23;;
42616;SDS011;28250;52.320;0.360;2023-07-16T13:05:47;3.17;;;0.93;;
42616;SDS011;28250;52.320;0.360;2023-07-16T13:08:13;3.40;;;0.70;;
42616;SDS011;28250;52.320;0.360;2023-07-16T13:10:40;3.97;;;0.87;;
42616;SDS011;28250;52.320;0.360;2023-07-16T13:13:07;5.38;;;0.80;;
42616;SDS011;28250;52.320;0.360;2023-07-16T13:15:33;3.53;;;0.90;;
42616;SDS011;28250;52.320;0.360;2023-07-16T13:18:00;1.95;;;0.73;;
42616;SDS011;28250;52.320;0.360;2023-07-16T13:20:26;3.28;;;1.00;;
42616;SDS011;28250;52.320;0.360;2023-07-16T13:22:55;3.38;;;1.00;;
42616;SDS011;28250;52.320;0.360;2023-07-16T13:25:21;4.65;;;1.40;;
42616;SDS011;28250;52.320;0.360;2023-07-16T13:27:48;8.18;;;1.02;;
42616;SDS011;28250;52.320;0.360;2023-07-16T13:30:14;3.80;;;1.00;;
42616;SDS011;28250;52.320;0.360;2023-07-16T13:32:41;4.03;;;1.20;;
42616;SDS011;28250;52.320;0.360;2023-07-16T13:35:07;5.50;;;1.35;;
42616;SDS011;28250;52.320;0.360;2023-07-16T13:37:34;5.43;;;1.25;;
42616;SDS011;28250;52.320;0.360;2023-07-16T13:40:00;6.25;;;1.10;;
42616;SDS011;28250;52.320;0.360;2023-07-16T13:42:27;5.80;;;0.98;;
42616;SDS011;28250;52.320;0.360;2023-07-16T13:44:53;4.80;;;1.07;;
42616;SDS011;28250;52.320;0.360;2023-07-16T13:47:20;3.78;;;0.85;;
42616;SDS011;28250;52.320;0.360;2023-07-16T13:49:46;4.95;;;1.02;;
42616;SDS011;28250;52.320;0.360;2023-07-16T13:52:13;6.77;;;1.47;;
42616;SDS011;28250;52.320;0.360;2023-07-16T13:54:39;3.10;;;0.73;;
42616;SDS011;28250;52.320;0.360;2023-07-16T13:57:05;1.60;;;0.70;;
42616;SDS011;28250;52.320;0.360;2023-07-16T13:59:32;2.47;;;0.87;;
42616;SDS011;28250;52.320;0.360;2023-07-16T14:01:59;3.50;;;0.87;;
42616;SDS011;28250;52.320;0.360;2023-07-16T14:04:26;3.28;;;0.90;;
42616;SDS011;28250;52.320;0.360;2023-07-16T14:06:53;4.20;;;0.88;;
42616;SDS011;28250;52.320;0.360;2023-07-16T14:09:20;6.90;;;1.48;;
42616;SDS011;28250;52.320;0.360;2023-07-16T14:11:47;4.95;;;0.90;;
42616;SDS011;28250;52.320;0.360;2023-07-16T14:14:14;3.55;;;1.00;;
42616;SDS011;28250;52.320;0.360;2023-07-16T14:16:41;2.97;;;1.00;;
42616;SDS011;28250;52.320;0.360;2023-07-16T14:21:35;2.53;;;1.00;;
42616;SDS011;28250;52.320;0.360;2023-07-16T14:24:01;4.70;;;1.30;;
42616;SDS011;28250;52.320;0.360;2023-07-16T14:26:29;2.25;;;0.90;;
42616;SDS011;28250;52.320;0.360;2023-07-16T14:28:55;3.87;;;0.77;;
42616;SDS011;28250;52.320;0.360;2023-07-16T14:31:21;3.38;;;0.80;;
42616;SDS011;28250;52.320;0.360;2023-07-16T14:33:48;7.13;;;0.80;;
42616;SDS011;28250;52.320;0.360;2023-07-16T14:36:14;1.93;;;0.63;;
42616;SDS011;28250;52.320;0.360;2023-07-16T14:38:41;1.33;;;0.50;;
42616;SDS011;28250;52.320;0.360;2023-07-16T14:41:08;3.65;;;0.50;;
42616;SDS011;28250;52.320;0.360;2023-07-16T14:43:35;2.88;;;0.60;;
42616;SDS011;28250;52.320;0.360;2023-07-16T14:46:01;2.33;;;0.37;;
42616;SDS011;28250;52.320;0.360;2023-07-16T14:48:28;4.80;;;0.40;;
42616;SDS011;28250;52.320;0.360;2023-07-16T14:50:54;2.92;;;0.52;;
42616;SDS011;28250;52.320;0.360;2023-07-16T14:53:21;1.77;;;0.35;;
42616;SDS011;28250;52.320;0.360;2023-07-16T14:55:51;2.50;;;0.33;;
42616;SDS011;28250;52.320;0.360;2023-07-16T14:58:18;1.85;;;0.47;;
42616;SDS011;28250;52.320;0.360;2023-07-16T15:00:46;1.75;;;0.30;;
42616;SDS011;28250;52.320;0.360;2023-07-16T15:03:12;2.03;;;0.37;;
42616;SDS011;28250;52.320;0.360;2023-07-16T15:05:38;1.83;;;0.55;;
42616;SDS011;28250;52.320;0.360;2023-07-16T15:08:05;1.98;;;0.35;;